sensor_id;sensor_type;location;lat;lon;timestamp;P1;durP1;ratioP1;P2;durP2;ratioP2
29902;SDS011;30288;50.514;9.678;2022-08-03T00:01:46;9.18;;;5.35;;
29902;SDS011;30288;50.514;9.678;2022-08-03T00:03:57;9.73;;;5.00;;
29902;SDS011;30288;50.514;9.678;2022-08-03T00:06:16;10.40;;;5.07;;
29902;SDS011;30288;50.514;9.678;2022-08-03T00:08:28;14.52;;;5.05;;
29902;SDS011;30288;50.514;9.678;2022-08-03T00:10:45;8.48;;;5.38;;
29902;SDS011;30288;50.514;9.678;2022-08-03T00:12:57;7.05;;;4.75;;
29902;SDS011;30288;50.514;9.678;2022-08-03T00:15:14;8.38;;;5.47;;
29902;SDS011;30288;50.514;9.678;2022-08-03T00:17:24;8.05;;;5.25;;
29902;SDS011;30288;50.514;9.678;2022-08-03T00:19:50;8.15;;;5.47;;
29902;SDS011;30288;50.514;9.678;2022-08-03T00:22:09;9.40;;;5.03;;
29902;SDS011;30288;50.514;9.678;2022-08-03T00:24:21;8.25;;;5.35;;
29902;SDS011;30288;50.514;9.678;2022-08-03T00:26:38;8.85;;;5.50;;
29902;SDS011;30288;50.514;9.678;2022-08-03T00:28:49;8.45;;;5.20;;
29902;SDS011;30288;50.514;9.678;2022-08-03T00:31:01;7.68;;;5.03;;
29902;SDS011;30288;50.514;9.678;2022-08-03T00:33:18;10.18;;;5.82;;
29902;SDS011;30288;50.514;9.678;2022-08-03T00:35:29;7.68;;;5.13;;
29902;SDS011;30288;50.514;9.678;2022-08-03T00:37:54;9.75;;;5.93;;
29902;SDS011;30288;50.514;9.678;2022-08-03T00:40:11;11.77;;;5.75;;
29902;SDS011;30288;50.514;9.678;2022-08-03T00:42:24;8.95;;;5.95;;
29902;SDS011;30288;50.514;9.678;2022-08-03T00:44:41;8.32;;;5.70;;
29902;SDS011;30288;50.514;9.678;2022-08-03T00:46:54;9.15;;;5.43;;
29902;SDS011;30288;50.514;9.678;2022-08-03T00:49:07;8.27;;;5.45;;
29902;SDS011;30288;50.514;9.678;2022-08-03T00:51:24;8.75;;;5.50;;
29902;SDS011;30288;50.514;9.678;2022-08-03T00:53:37;14.13;;;5.47;;
29902;SDS011;30288;50.514;9.678;2022-08-03T00:55:50;8.52;;;5.55;;
29902;SDS011;30288;50.514;9.678;2022-08-03T00:58:07;7.00;;;4.82;;
29902;SDS011;30288;50.514;9.678;2022-08-03T01:00:19;8.13;;;5.47;;
29902;SDS011;30288;50.514;9.678;2022-08-03T01:02:39;10.32;;;5.85;;
29902;SDS011;30288;50.514;9.678;2022-08-03T01:04:51;6.88;;;4.93;;
29902;SDS011;30288;50.514;9.678;2022-08-03T01:07:10;9.20;;;6.03;;
29902;SDS011;30288;50.514;9.678;2022-08-03T01:09:34;10.32;;;6.35;;
29902;SDS011;30288;50.514;9.678;2022-08-03T01:12:14;12.40;;;6.72;;
29902;SDS011;30288;50.514;9.678;2022-08-03T01:14:37;9.32;;;5.90;;
29902;SDS011;30288;50.514;9.678;2022-08-03T01:19:14;11.30;;;6.03;;
29902;SDS011;30288;50.514;9.678;2022-08-03T01:21:47;7.00;;;4.03;;
29902;SDS011;30288;50.514;9.678;2022-08-03T01:24:13;8.05;;;6.05;;
29902;SDS011;30288;50.514;9.678;2022-08-03T01:26:54;11.48;;;6.45;;
29902;SDS011;30288;50.514;9.678;2022-08-03T01:32:10;9.70;;;6.10;;
29902;SDS011;30288;50.514;9.678;2022-08-03T01:34:42;9.13;;;6.87;;
29902;SDS011;30288;50.514;9.678;2022-08-03T01:36:59;10.52;;;6.50;;
29902;SDS011;30288;50.514;9.678;2022-08-03T01:39:21;13.57;;;6.45;;
29902;SDS011;30288;50.514;9.678;2022-08-03T01:41:36;10.80;;;6.93;;
29902;SDS011;30288;50.514;9.678;2022-08-03T01:43:59;10.57;;;5.95;;
29902;SDS011;30288;50.514;9.678;2022-08-03T01:46:21;9.73;;;6.05;;
29902;SDS011;30288;50.514;9.678;2022-08-03T01:48:35;8.25;;;6.05;;
29902;SDS011;30288;50.514;9.678;2022-08-03T01:50:49;9.77;;;6.70;;
29902;SDS011;30288;50.514;9.678;2022-08-03T01:53:10;10.07;;;6.80;;
29902;SDS011;30288;50.514;9.678;2022-08-03T01:55:25;9.38;;;6.35;;
29902;SDS011;30288;50.514;9.678;2022-08-03T01:57:46;8.10;;;6.57;;
29902;SDS011;30288;50.514;9.678;2022-08-03T02:00:07;14.38;;;6.20;;
29902;SDS011;30288;50.514;9.678;2022-08-03T02:02:23;10.68;;;6.68;;
29902;SDS011;30288;50.514;9.678;2022-08-03T02:04:42;11.75;;;6.97;;
29902;SDS011;30288;50.514;9.678;2022-08-03T02:06:55;9.70;;;6.65;;
29902;SDS011;30288;50.514;9.678;2022-08-03T02:09:10;9.02;;;6.63;;
29902;SDS011;30288;50.514;9.678;2022-08-03T02:11:29;10.55;;;6.35;;
29902;SDS011;30288;50.514;9.678;2022-08-03T02:13:44;12.05;;;6.57;;
29902;SDS011;30288;50.514;9.678;2022-08-03T02:15:58;10.00;;;6.50;;
29902;SDS011;30288;50.514;9.678;2022-08-03T02:18:12;11.60;;;7.70;;
29902;SDS011;30288;50.514;9.678;2022-08-03T02:20:26;8.73;;;6.00;;
29902;SDS011;30288;50.514;9.678;2022-08-03T02:22:40;10.35;;;7.03;;
29902;SDS011;30288;50.514;9.678;2022-08-03T02:25:00;9.65;;;6.60;;
29902;SDS011;30288;50.514;9.678;2022-08-03T02:27:15;9.45;;;6.75;;
29902;SDS011;30288;50.514;9.678;2022-08-03T02:29:31;9.82;;;6.72;;
29902;SDS011;30288;50.514;9.678;2022-08-03T02:31:51;8.32;;;6.60;;
29902;SDS011;30288;50.514;9.678;2022-08-03T02:34:07;10.10;;;7.28;;
29902;SDS011;30288;50.514;9.678;2022-08-03T02:36:28;8.18;;;6.55;;
29902;SDS011;30288;50.514;9.678;2022-08-03T02:38:44;9.77;;;7.00;;
29902;SDS011;30288;50.514;9.678;2022-08-03T02:41:06;9.48;;;7.03;;
29902;SDS011;30288;50.514;9.678;2022-08-03T02:43:23;11.20;;;7.57;;
29902;SDS011;30288;50.514;9.678;2022-08-03T02:45:50;10.10;;;7.53;;
29902;SDS011;30288;50.514;9.678;2022-08-03T02:48:09;8.80;;;6.85;;
29902;SDS011;30288;50.514;9.678;2022-08-03T02:50:27;13.20;;;7.90;;
29902;SDS011;30288;50.514;9.678;2022-08-03T02:52:41;10.15;;;7.75;;
29902;SDS011;30288;50.514;9.678;2022-08-03T02:54:56;11.27;;;7.57;;
29902;SDS011;30288;50.514;9.678;2022-08-03T02:57:11;11.10;;;7.00;;
29902;SDS011;30288;50.514;9.678;2022-08-03T02:59:32;12.50;;;8.18;;
29902;SDS011;30288;50.514;9.678;2022-08-03T03:01:44;12.40;;;8.20;;
29902;SDS011;30288;50.514;9.678;2022-08-03T03:03:56;10.48;;;8.52;;
29902;SDS011;30288;50.514;9.678;2022-08-03T03:09:02;10.50;;;7.50;;
29902;SDS011;30288;50.514;9.678;2022-08-03T03:11:21;12.27;;;8.45;;
29902;SDS011;30288;50.514;9.678;2022-08-03T03:13:34;13.32;;;8.30;;
29902;SDS011;30288;50.514;9.678;2022-08-03T03:15:53;13.07;;;8.52;;
29902;SDS011;30288;50.514;9.678;2022-08-03T03:18:06;11.35;;;7.30;;
29902;SDS011;30288;50.514;9.678;2022-08-03T03:20:25;14.63;;;7.90;;
29902;SDS011;30288;50.514;9.678;2022-08-03T03:22:41;12.77;;;8.10;;
29902;SDS011;30288;50.514;9.678;2022-08-03T03:24:54;11.63;;;8.00;;
29902;SDS011;30288;50.514;9.678;2022-08-03T03:27:12;11.98;;;7.95;;
29902;SDS011;30288;50.514;9.678;2022-08-03T03:29:25;11.30;;;8.27;;
29902;SDS011;30288;50.514;9.678;2022-08-03T03:31:39;10.25;;;7.60;;
29902;SDS011;30288;50.514;9.678;2022-08-03T03:33:57;13.13;;;8.05;;
29902;SDS011;30288;50.514;9.678;2022-08-03T03:36:09;11.55;;;8.80;;
29902;SDS011;30288;50.514;9.678;2022-08-03T03:38:23;10.00;;;7.78;;
29902;SDS011;30288;50.514;9.678;2022-08-03T03:40:35;10.98;;;7.80;;
29902;SDS011;30288;50.514;9.678;2022-08-03T03:42:47;13.10;;;8.77;;
29902;SDS011;30288;50.514;9.678;2022-08-03T03:45:02;12.68;;;8.43;;
29902;SDS011;30288;50.514;9.678;2022-08-03T03:47:19;13.18;;;8.48;;
29902;SDS011;30288;50.514;9.678;2022-08-03T03:49:33;13.52;;;7.95;;
29902;SDS011;30288;50.514;9.678;2022-08-03T03:51:39;17.63;;;9.77;;
29902;SDS011;30288;50.514;9.678;2022-08-03T03:54:00;13.63;;;8.50;;
29902;SDS011;30288;50.514;9.678;2022-08-03T03:56:14;14.20;;;8.60;;
29902;SDS011;30288;50.514;9.678;2022-08-03T03:58:31;15.77;;;8.30;;
29902;SDS011;30288;50.514;9.678;2022-08-03T04:00:43;12.90;;;9.02;;
29902;SDS011;30288;50.514;9.678;2022-08-03T04:03:00;12.13;;;8.13;;
29902;SDS011;30288;50.514;9.678;2022-08-03T04:05:12;11.20;;;8.60;;
29902;SDS011;30288;50.514;9.678;2022-08-03T04:07:32;10.68;;;8.02;;
29902;SDS011;30288;50.514;9.678;2022-08-03T04:10:11;11.35;;;8.35;;
29902;SDS011;30288;50.514;9.678;2022-08-03T04:12:40;12.60;;;8.47;;
29902;SDS011;30288;50.514;9.678;2022-08-03T04:14:51;12.70;;;8.98;;
29902;SDS011;30288;50.514;9.678;2022-08-03T04:17:12;12.93;;;9.70;;
29902;SDS011;30288;50.514;9.678;2022-08-03T04:19:27;18.63;;;9.57;;
29902;SDS011;30288;50.514;9.678;2022-08-03T04:21:49;16.23;;;9.10;;
29902;SDS011;30288;50.514;9.678;2022-08-03T04:24:05;13.32;;;8.57;;
29902;SDS011;30288;50.514;9.678;2022-08-03T04:26:23;13.60;;;8.85;;
29902;SDS011;30288;50.514;9.678;2022-08-03T04:28:30;14.05;;;8.75;;
29902;SDS011;30288;50.514;9.678;2022-08-03T04:30:44;11.73;;;8.20;;
29902;SDS011;30288;50.514;9.678;2022-08-03T04:32:59;11.32;;;8.27;;
29902;SDS011;30288;50.514;9.678;2022-08-03T04:35:12;14.82;;;9.98;;
29902;SDS011;30288;50.514;9.678;2022-08-03T04:37:25;12.23;;;8.73;;
29902;SDS011;30288;50.514;9.678;2022-08-03T04:39:50;13.35;;;9.07;;
29902;SDS011;30288;50.514;9.678;2022-08-03T04:42:07;15.98;;;8.85;;
29902;SDS011;30288;50.514;9.678;2022-08-03T04:44:15;11.75;;;9.13;;
29902;SDS011;30288;50.514;9.678;2022-08-03T04:46:33;14.25;;;8.63;;
29902;SDS011;30288;50.514;9.678;2022-08-03T04:48:59;11.27;;;8.02;;
29902;SDS011;30288;50.514;9.678;2022-08-03T04:51:17;12.10;;;8.93;;
29902;SDS011;30288;50.514;9.678;2022-08-03T04:53:29;11.82;;;8.88;;
29902;SDS011;30288;50.514;9.678;2022-08-03T04:55:46;11.30;;;8.63;;
29902;SDS011;30288;50.514;9.678;2022-08-03T04:58:01;15.27;;;8.88;;
29902;SDS011;30288;50.514;9.678;2022-08-03T05:00:20;15.18;;;8.13;;
29902;SDS011;30288;50.514;9.678;2022-08-03T05:02:32;11.68;;;8.35;;
29902;SDS011;30288;50.514;9.678;2022-08-03T05:04:43;13.10;;;8.55;;
29902;SDS011;30288;50.514;9.678;2022-08-03T05:07:01;12.18;;;8.07;;
29902;SDS011;30288;50.514;9.678;2022-08-03T05:09:19;11.57;;;7.57;;
29902;SDS011;30288;50.514;9.678;2022-08-03T05:11:36;12.65;;;8.50;;
29902;SDS011;30288;50.514;9.678;2022-08-03T05:13:50;11.57;;;8.27;;
29902;SDS011;30288;50.514;9.678;2022-08-03T05:16:02;10.98;;;7.93;;
29902;SDS011;30288;50.514;9.678;2022-08-03T05:18:20;11.07;;;8.35;;
29902;SDS011;30288;50.514;9.678;2022-08-03T05:20:31;11.32;;;8.02;;
29902;SDS011;30288;50.514;9.678;2022-08-03T05:22:48;13.15;;;8.05;;
29902;SDS011;30288;50.514;9.678;2022-08-03T05:24:59;11.00;;;7.60;;
29902;SDS011;30288;50.514;9.678;2022-08-03T05:27:11;10.55;;;7.68;;
29902;SDS011;30288;50.514;9.678;2022-08-03T05:29:34;11.60;;;7.93;;
29902;SDS011;30288;50.514;9.678;2022-08-03T05:31:46;11.13;;;8.35;;
29902;SDS011;30288;50.514;9.678;2022-08-03T05:34:03;11.98;;;7.90;;
29902;SDS011;30288;50.514;9.678;2022-08-03T05:36:14;12.88;;;8.48;;
29902;SDS011;30288;50.514;9.678;2022-08-03T05:38:26;12.77;;;8.57;;
29902;SDS011;30288;50.514;9.678;2022-08-03T05:40:44;13.63;;;8.13;;
29902;SDS011;30288;50.514;9.678;2022-08-03T05:43:04;13.88;;;7.93;;
29902;SDS011;30288;50.514;9.678;2022-08-03T05:45:24;16.58;;;7.63;;
29902;SDS011;30288;50.514;9.678;2022-08-03T05:47:36;13.32;;;6.93;;
29902;SDS011;30288;50.514;9.678;2022-08-03T05:49:47;14.70;;;7.80;;
29902;SDS011;30288;50.514;9.678;2022-08-03T05:52:04;13.30;;;7.63;;
29902;SDS011;30288;50.514;9.678;2022-08-03T05:54:18;12.70;;;6.90;;
29902;SDS011;30288;50.514;9.678;2022-08-03T05:56:36;15.60;;;7.55;;
29902;SDS011;30288;50.514;9.678;2022-08-03T05:58:48;13.10;;;6.43;;
29902;SDS011;30288;50.514;9.678;2022-08-03T06:01:01;11.77;;;6.82;;
29902;SDS011;30288;50.514;9.678;2022-08-03T06:03:19;9.95;;;6.15;;
29902;SDS011;30288;50.514;9.678;2022-08-03T06:05:26;11.32;;;6.82;;
29902;SDS011;30288;50.514;9.678;2022-08-03T06:07:37;12.00;;;6.07;;
29902;SDS011;30288;50.514;9.678;2022-08-03T06:09:55;10.30;;;5.97;;
29902;SDS011;30288;50.514;9.678;2022-08-03T06:12:22;10.02;;;6.10;;
29902;SDS011;30288;50.514;9.678;2022-08-03T06:14:34;11.65;;;5.97;;
29902;SDS011;30288;50.514;9.678;2022-08-03T06:16:48;9.75;;;5.60;;
29902;SDS011;30288;50.514;9.678;2022-08-03T06:19:00;11.43;;;5.60;;
29902;SDS011;30288;50.514;9.678;2022-08-03T06:21:17;7.10;;;4.35;;
29902;SDS011;30288;50.514;9.678;2022-08-03T06:23:26;8.80;;;4.57;;
29902;SDS011;30288;50.514;9.678;2022-08-03T06:25:44;9.75;;;4.32;;
29902;SDS011;30288;50.514;9.678;2022-08-03T06:27:56;12.65;;;4.53;;
29902;SDS011;30288;50.514;9.678;2022-08-03T06:30:14;9.80;;;4.82;;
29902;SDS011;30288;50.514;9.678;2022-08-03T06:32:30;10.43;;;4.90;;
29902;SDS011;30288;50.514;9.678;2022-08-03T06:34:48;6.30;;;4.35;;
29902;SDS011;30288;50.514;9.678;2022-08-03T06:36:59;7.85;;;4.88;;
29902;SDS011;30288;50.514;9.678;2022-08-03T06:39:16;9.45;;;4.45;;
29902;SDS011;30288;50.514;9.678;2022-08-03T06:41:30;7.57;;;4.13;;
29902;SDS011;30288;50.514;9.678;2022-08-03T06:43:47;9.50;;;4.10;;
29902;SDS011;30288;50.514;9.678;2022-08-03T06:46:04;8.45;;;4.57;;
29902;SDS011;30288;50.514;9.678;2022-08-03T06:48:18;9.48;;;4.57;;
29902;SDS011;30288;50.514;9.678;2022-08-03T06:50:36;8.90;;;3.80;;
29902;SDS011;30288;50.514;9.678;2022-08-03T06:52:51;7.03;;;3.92;;
29902;SDS011;30288;50.514;9.678;2022-08-03T06:55:08;9.93;;;3.97;;
29902;SDS011;30288;50.514;9.678;2022-08-03T07:06:49;6.47;;;3.70;;
29902;SDS011;30288;50.514;9.678;2022-08-03T07:09:07;6.63;;;3.50;;
29902;SDS011;30288;50.514;9.678;2022-08-03T07:11:18;7.40;;;3.47;;
29902;SDS011;30288;50.514;9.678;2022-08-03T07:13:29;7.85;;;3.65;;
29902;SDS011;30288;50.514;9.678;2022-08-03T07:15:46;5.25;;;3.22;;
29902;SDS011;30288;50.514;9.678;2022-08-03T07:18:03;7.53;;;2.72;;
29902;SDS011;30288;50.514;9.678;2022-08-03T07:20:20;9.15;;;2.83;;
29902;SDS011;30288;50.514;9.678;2022-08-03T07:22:34;9.63;;;3.08;;
29902;SDS011;30288;50.514;9.678;2022-08-03T07:24:45;5.13;;;3.13;;
29902;SDS011;30288;50.514;9.678;2022-08-03T07:27:03;7.55;;;3.50;;
29902;SDS011;30288;50.514;9.678;2022-08-03T07:29:14;5.78;;;2.90;;
29902;SDS011;30288;50.514;9.678;2022-08-03T07:31:31;8.90;;;2.60;;
29902;SDS011;30288;50.514;9.678;2022-08-03T07:33:42;6.85;;;2.78;;
29902;SDS011;30288;50.514;9.678;2022-08-03T07:35:53;6.03;;;2.75;;
29902;SDS011;30288;50.514;9.678;2022-08-03T07:38:12;5.10;;;2.33;;
29902;SDS011;30288;50.514;9.678;2022-08-03T07:40:28;5.43;;;2.40;;
29902;SDS011;30288;50.514;9.678;2022-08-03T07:42:45;5.32;;;2.40;;
29902;SDS011;30288;50.514;9.678;2022-08-03T07:45:00;5.68;;;2.47;;
29902;SDS011;30288;50.514;9.678;2022-08-03T07:47:17;6.03;;;2.03;;
29902;SDS011;30288;50.514;9.678;2022-08-03T07:49:29;4.50;;;2.28;;
29902;SDS011;30288;50.514;9.678;2022-08-03T07:51:46;3.92;;;2.00;;
29902;SDS011;30288;50.514;9.678;2022-08-03T07:54:20;4.85;;;2.22;;
29902;SDS011;30288;50.514;9.678;2022-08-03T07:56:32;4.60;;;1.90;;
29902;SDS011;30288;50.514;9.678;2022-08-03T07:58:49;4.20;;;2.20;;
29902;SDS011;30288;50.514;9.678;2022-08-03T08:01:01;3.50;;;2.10;;
29902;SDS011;30288;50.514;9.678;2022-08-03T08:03:19;5.47;;;1.88;;
29902;SDS011;30288;50.514;9.678;2022-08-03T08:05:31;5.25;;;1.95;;
29902;SDS011;30288;50.514;9.678;2022-08-03T08:07:49;4.63;;;2.20;;
29902;SDS011;30288;50.514;9.678;2022-08-03T08:10:03;7.00;;;2.10;;
29902;SDS011;30288;50.514;9.678;2022-08-03T08:12:17;4.35;;;2.33;;
29902;SDS011;30288;50.514;9.678;2022-08-03T08:14:34;4.90;;;2.10;;
29902;SDS011;30288;50.514;9.678;2022-08-03T08:16:45;5.47;;;2.50;;
29902;SDS011;30288;50.514;9.678;2022-08-03T08:19:02;6.18;;;1.98;;
29902;SDS011;30288;50.514;9.678;2022-08-03T08:21:13;5.30;;;1.80;;
29902;SDS011;30288;50.514;9.678;2022-08-03T08:23:25;4.13;;;1.90;;
29902;SDS011;30288;50.514;9.678;2022-08-03T08:25:44;4.38;;;2.00;;
29902;SDS011;30288;50.514;9.678;2022-08-03T08:27:56;5.13;;;1.80;;
29902;SDS011;30288;50.514;9.678;2022-08-03T08:30:23;4.28;;;1.92;;
29902;SDS011;30288;50.514;9.678;2022-08-03T08:32:36;5.20;;;2.15;;
29902;SDS011;30288;50.514;9.678;2022-08-03T08:34:48;5.10;;;1.77;;
29902;SDS011;30288;50.514;9.678;2022-08-03T08:37:00;4.50;;;1.67;;
29902;SDS011;30288;50.514;9.678;2022-08-03T08:39:11;7.25;;;2.03;;
29902;SDS011;30288;50.514;9.678;2022-08-03T08:41:29;4.28;;;1.90;;
29902;SDS011;30288;50.514;9.678;2022-08-03T08:43:47;4.75;;;1.90;;
29902;SDS011;30288;50.514;9.678;2022-08-03T08:45:58;4.72;;;1.65;;
29902;SDS011;30288;50.514;9.678;2022-08-03T08:48:11;3.67;;;1.80;;
29902;SDS011;30288;50.514;9.678;2022-08-03T08:50:26;5.63;;;1.90;;
29902;SDS011;30288;50.514;9.678;2022-08-03T08:52:39;3.45;;;1.77;;
29902;SDS011;30288;50.514;9.678;2022-08-03T08:57:13;5.35;;;1.85;;
29902;SDS011;30288;50.514;9.678;2022-08-03T08:59:39;5.05;;;1.83;;
29902;SDS011;30288;50.514;9.678;2022-08-03T09:01:58;4.63;;;1.75;;
29902;SDS011;30288;50.514;9.678;2022-08-03T09:06:29;5.22;;;1.80;;
29902;SDS011;30288;50.514;9.678;2022-08-03T09:08:41;6.85;;;1.88;;
29902;SDS011;30288;50.514;9.678;2022-08-03T09:10:59;3.22;;;1.70;;
29902;SDS011;30288;50.514;9.678;2022-08-03T09:13:17;4.53;;;1.60;;
29902;SDS011;30288;50.514;9.678;2022-08-03T09:15:29;4.90;;;1.83;;
29902;SDS011;30288;50.514;9.678;2022-08-03T09:17:42;4.65;;;1.77;;
29902;SDS011;30288;50.514;9.678;2022-08-03T09:20:05;4.10;;;1.90;;
29902;SDS011;30288;50.514;9.678;2022-08-03T09:22:12;3.22;;;1.70;;
29902;SDS011;30288;50.514;9.678;2022-08-03T09:24:31;4.22;;;1.63;;
29902;SDS011;30288;50.514;9.678;2022-08-03T09:26:48;3.28;;;1.75;;
29902;SDS011;30288;50.514;9.678;2022-08-03T09:29:04;7.50;;;2.20;;
29902;SDS011;30288;50.514;9.678;2022-08-03T09:31:29;3.78;;;1.90;;
29902;SDS011;30288;50.514;9.678;2022-08-03T09:33:45;4.50;;;1.90;;
29902;SDS011;30288;50.514;9.678;2022-08-03T09:35:58;3.30;;;1.60;;
29902;SDS011;30288;50.514;9.678;2022-08-03T09:38:16;5.05;;;2.03;;
29902;SDS011;30288;50.514;9.678;2022-08-03T09:40:32;2.38;;;1.63;;
29902;SDS011;30288;50.514;9.678;2022-08-03T09:42:54;6.25;;;1.92;;
29902;SDS011;30288;50.514;9.678;2022-08-03T09:45:11;7.03;;;2.10;;
29902;SDS011;30288;50.514;9.678;2022-08-03T09:47:42;7.07;;;1.98;;
29902;SDS011;30288;50.514;9.678;2022-08-03T09:49:55;5.53;;;1.70;;
29902;SDS011;30288;50.514;9.678;2022-08-03T09:52:14;3.05;;;1.80;;
29902;SDS011;30288;50.514;9.678;2022-08-03T09:54:43;4.22;;;1.73;;
29902;SDS011;30288;50.514;9.678;2022-08-03T09:56:55;4.10;;;1.70;;
29902;SDS011;30288;50.514;9.678;2022-08-03T09:59:22;3.35;;;1.67;;
29902;SDS011;30288;50.514;9.678;2022-08-03T10:01:38;3.85;;;1.50;;
29902;SDS011;30288;50.514;9.678;2022-08-03T10:03:58;4.47;;;1.70;;
29902;SDS011;30288;50.514;9.678;2022-08-03T10:06:16;4.70;;;1.77;;
29902;SDS011;30288;50.514;9.678;2022-08-03T10:08:29;3.65;;;1.60;;
29902;SDS011;30288;50.514;9.678;2022-08-03T10:10:41;6.32;;;2.00;;
29902;SDS011;30288;50.514;9.678;2022-08-03T10:12:59;5.10;;;1.52;;
29902;SDS011;30288;50.514;9.678;2022-08-03T10:15:11;3.17;;;1.53;;
29902;SDS011;30288;50.514;9.678;2022-08-03T10:17:31;4.25;;;1.80;;
29902;SDS011;30288;50.514;9.678;2022-08-03T10:19:47;3.97;;;1.75;;
29902;SDS011;30288;50.514;9.678;2022-08-03T10:22:06;3.90;;;1.80;;
29902;SDS011;30288;50.514;9.678;2022-08-03T10:24:23;3.83;;;1.42;;
29902;SDS011;30288;50.514;9.678;2022-08-03T10:26:43;6.70;;;1.70;;
29902;SDS011;30288;50.514;9.678;2022-08-03T10:28:56;5.13;;;1.77;;
29902;SDS011;30288;50.514;9.678;2022-08-03T10:31:13;2.70;;;1.60;;
29902;SDS011;30288;50.514;9.678;2022-08-03T10:33:31;4.70;;;1.90;;
29902;SDS011;30288;50.514;9.678;2022-08-03T10:35:55;3.67;;;1.70;;
29902;SDS011;30288;50.514;9.678;2022-08-03T10:38:08;3.20;;;1.42;;
29902;SDS011;30288;50.514;9.678;2022-08-03T10:40:26;5.00;;;1.77;;
29902;SDS011;30288;50.514;9.678;2022-08-03T10:42:46;4.03;;;1.60;;
29902;SDS011;30288;50.514;9.678;2022-08-03T10:45:04;7.00;;;2.03;;
29902;SDS011;30288;50.514;9.678;2022-08-03T10:49:29;3.88;;;1.45;;
29902;SDS011;30288;50.514;9.678;2022-08-03T10:51:47;3.30;;;1.88;;
29902;SDS011;30288;50.514;9.678;2022-08-03T10:54:01;4.00;;;1.83;;
29902;SDS011;30288;50.514;9.678;2022-08-03T10:59:05;2.95;;;1.55;;
29902;SDS011;30288;50.514;9.678;2022-08-03T11:01:18;3.13;;;1.60;;
29902;SDS011;30288;50.514;9.678;2022-08-03T11:04:14;4.03;;;1.80;;
29902;SDS011;30288;50.514;9.678;2022-08-03T11:06:31;5.07;;;1.83;;
29902;SDS011;30288;50.514;9.678;2022-08-03T11:08:48;2.40;;;1.48;;
29902;SDS011;30288;50.514;9.678;2022-08-03T11:11:24;2.78;;;1.30;;
29902;SDS011;30288;50.514;9.678;2022-08-03T11:13:54;4.22;;;1.58;;
29902;SDS011;30288;50.514;9.678;2022-08-03T11:16:17;3.33;;;1.67;;
29902;SDS011;30288;50.514;9.678;2022-08-03T11:18:24;4.43;;;1.90;;
29902;SDS011;30288;50.514;9.678;2022-08-03T11:20:45;5.85;;;1.90;;
29902;SDS011;30288;50.514;9.678;2022-08-03T11:23:01;3.00;;;1.42;;
29902;SDS011;30288;50.514;9.678;2022-08-03T11:25:13;4.60;;;1.70;;
29902;SDS011;30288;50.514;9.678;2022-08-03T11:27:31;3.75;;;1.80;;
29902;SDS011;30288;50.514;9.678;2022-08-03T11:29:52;6.95;;;2.50;;
29902;SDS011;30288;50.514;9.678;2022-08-03T11:32:00;3.80;;;1.70;;
29902;SDS011;30288;50.514;9.678;2022-08-03T11:34:12;3.40;;;1.58;;
29902;SDS011;30288;50.514;9.678;2022-08-03T11:36:25;3.90;;;1.60;;
29902;SDS011;30288;50.514;9.678;2022-08-03T11:41:31;3.70;;;1.70;;
29902;SDS011;30288;50.514;9.678;2022-08-03T11:43:52;4.55;;;1.52;;
29902;SDS011;30288;50.514;9.678;2022-08-03T11:46:10;5.10;;;1.52;;
29902;SDS011;30288;50.514;9.678;2022-08-03T11:48:33;3.72;;;1.42;;
29902;SDS011;30288;50.514;9.678;2022-08-03T11:50:52;2.28;;;1.42;;
29902;SDS011;30288;50.514;9.678;2022-08-03T11:53:04;3.63;;;1.88;;
29902;SDS011;30288;50.514;9.678;2022-08-03T11:55:20;3.97;;;1.50;;
29902;SDS011;30288;50.514;9.678;2022-08-03T11:57:37;4.72;;;1.48;;
29902;SDS011;30288;50.514;9.678;2022-08-03T12:00:03;3.03;;;1.63;;
29902;SDS011;30288;50.514;9.678;2022-08-03T12:02:31;3.95;;;1.50;;
29902;SDS011;30288;50.514;9.678;2022-08-03T12:04:49;3.25;;;1.50;;
29902;SDS011;30288;50.514;9.678;2022-08-03T12:06:57;4.53;;;1.38;;
29902;SDS011;30288;50.514;9.678;2022-08-03T12:09:17;2.88;;;1.58;;
29902;SDS011;30288;50.514;9.678;2022-08-03T12:11:31;2.65;;;1.60;;
29902;SDS011;30288;50.514;9.678;2022-08-03T12:13:43;3.65;;;1.48;;
29902;SDS011;30288;50.514;9.678;2022-08-03T12:16:16;5.88;;;1.63;;
29902;SDS011;30288;50.514;9.678;2022-08-03T12:18:34;2.85;;;1.90;;
29902;SDS011;30288;50.514;9.678;2022-08-03T12:20:47;2.95;;;1.60;;
29902;SDS011;30288;50.514;9.678;2022-08-03T12:23:06;4.85;;;1.70;;
29902;SDS011;30288;50.514;9.678;2022-08-03T12:25:20;2.58;;;1.63;;
29902;SDS011;30288;50.514;9.678;2022-08-03T12:27:43;3.55;;;1.60;;
29902;SDS011;30288;50.514;9.678;2022-08-03T12:29:55;4.50;;;1.42;;
29902;SDS011;30288;50.514;9.678;2022-08-03T12:32:13;6.75;;;1.65;;
29902;SDS011;30288;50.514;9.678;2022-08-03T12:36:58;3.00;;;1.50;;
29902;SDS011;30288;50.514;9.678;2022-08-03T12:39:24;2.58;;;1.60;;
29902;SDS011;30288;50.514;9.678;2022-08-03T12:41:38;2.70;;;1.50;;
29902;SDS011;30288;50.514;9.678;2022-08-03T12:43:53;2.47;;;1.30;;
29902;SDS011;30288;50.514;9.678;2022-08-03T12:46:08;2.42;;;1.45;;
29902;SDS011;30288;50.514;9.678;2022-08-03T12:48:22;3.10;;;1.48;;
29902;SDS011;30288;50.514;9.678;2022-08-03T12:50:39;5.88;;;1.70;;
29902;SDS011;30288;50.514;9.678;2022-08-03T12:52:50;3.83;;;1.30;;
29902;SDS011;30288;50.514;9.678;2022-08-03T12:55:07;4.28;;;1.25;;
29902;SDS011;30288;50.514;9.678;2022-08-03T12:57:38;2.13;;;1.33;;
29902;SDS011;30288;50.514;9.678;2022-08-03T13:00:08;2.70;;;1.40;;
29902;SDS011;30288;50.514;9.678;2022-08-03T13:02:28;3.47;;;1.45;;
29902;SDS011;30288;50.514;9.678;2022-08-03T13:04:40;2.25;;;1.30;;
29902;SDS011;30288;50.514;9.678;2022-08-03T13:06:59;2.65;;;1.20;;
29902;SDS011;30288;50.514;9.678;2022-08-03T13:09:13;1.85;;;1.17;;
29902;SDS011;30288;50.514;9.678;2022-08-03T13:11:26;2.72;;;1.15;;
29902;SDS011;30288;50.514;9.678;2022-08-03T13:13:44;5.80;;;1.30;;
29902;SDS011;30288;50.514;9.678;2022-08-03T13:15:59;3.95;;;1.42;;
29902;SDS011;30288;50.514;9.678;2022-08-03T13:18:10;4.07;;;1.23;;
29902;SDS011;30288;50.514;9.678;2022-08-03T13:20:27;2.78;;;1.33;;
29902;SDS011;30288;50.514;9.678;2022-08-03T13:22:39;2.53;;;1.10;;
29902;SDS011;30288;50.514;9.678;2022-08-03T13:24:51;1.73;;;0.90;;
29902;SDS011;30288;50.514;9.678;2022-08-03T13:27:10;1.10;;;0.90;;
29902;SDS011;30288;50.514;9.678;2022-08-03T13:29:36;2.13;;;1.30;;
29902;SDS011;30288;50.514;9.678;2022-08-03T13:31:52;1.90;;;1.10;;
29902;SDS011;30288;50.514;9.678;2022-08-03T13:34:03;3.22;;;1.30;;
29902;SDS011;30288;50.514;9.678;2022-08-03T13:38:32;3.38;;;1.10;;
29902;SDS011;30288;50.514;9.678;2022-08-03T13:43:01;2.60;;;1.20;;
29902;SDS011;30288;50.514;9.678;2022-08-03T13:45:12;2.28;;;1.30;;
29902;SDS011;30288;50.514;9.678;2022-08-03T13:47:26;4.00;;;1.15;;
29902;SDS011;30288;50.514;9.678;2022-08-03T13:49:38;3.15;;;1.30;;
29902;SDS011;30288;50.514;9.678;2022-08-03T13:52:02;3.65;;;1.15;;
29902;SDS011;30288;50.514;9.678;2022-08-03T13:54:20;3.50;;;1.45;;
29902;SDS011;30288;50.514;9.678;2022-08-03T13:56:32;1.75;;;1.10;;
29902;SDS011;30288;50.514;9.678;2022-08-03T13:58:49;1.77;;;1.20;;
29902;SDS011;30288;50.514;9.678;2022-08-03T14:01:01;2.90;;;1.38;;
29902;SDS011;30288;50.514;9.678;2022-08-03T14:03:16;2.10;;;1.13;;
29902;SDS011;30288;50.514;9.678;2022-08-03T14:05:27;2.97;;;1.10;;
29902;SDS011;30288;50.514;9.678;2022-08-03T14:07:39;1.67;;;1.08;;
29902;SDS011;30288;50.514;9.678;2022-08-03T14:09:51;1.95;;;1.25;;
29902;SDS011;30288;50.514;9.678;2022-08-03T14:12:04;2.72;;;1.13;;
29902;SDS011;30288;50.514;9.678;2022-08-03T14:14:15;2.15;;;1.08;;
29902;SDS011;30288;50.514;9.678;2022-08-03T14:16:27;2.50;;;1.10;;